createdAt,value
2022-11-25T00:01:39.324Z,100374.91
2022-11-25T00:06:41.578Z,100344.66
2022-11-25T00:11:43.918Z,100295.03
2022-11-25T00:16:48.715Z,100365.19
2022-11-25T00:21:51.316Z,100391.22
2022-11-25T00:26:53.496Z,100345.28
2022-11-25T00:31:55.852Z,100383.81
2022-11-25T00:36:58.345Z,100367.13
2022-11-25T00:42:19.092Z,100359.09
2022-11-25T00:47:22.659Z,100367.97
2022-11-25T00:52:27.526Z,100375.66
2022-11-25T00:57:30.156Z,100381.22
2022-11-25T01:02:32.465Z,100376.69
2022-11-25T01:07:34.790Z,100351.19
2022-11-25T01:12:37.199Z,100408.06
2022-11-25T01:17:39.630Z,100407.72
2022-11-25T01:22:42.011Z,100407.22
2022-11-25T01:27:44.348Z,100393.03
2022-11-25T01:32:46.521Z,100398.78
2022-11-25T01:37:48.764Z,100422.72
2022-11-25T01:42:51.043Z,100439.84
2022-11-25T01:48:00.409Z,100388.78
2022-11-25T01:53:08.438Z,100387.22
2022-11-25T01:58:21.411Z,100447.50
2022-11-25T02:03:28.943Z,100430.25
2022-11-25T02:08:33.438Z,100382.19
2022-11-25T02:13:37.159Z,100436.31
2022-11-25T02:18:39.676Z,100437.31
2022-11-25T02:23:55.024Z,100410.38
2022-11-25T02:28:58.008Z,100369.94
2022-11-25T02:34:00.233Z,100403.75
2022-11-25T02:39:03.785Z,100430.81
2022-11-25T02:44:06.789Z,100466.34
2022-11-25T02:49:10.150Z,100422.41
2022-11-25T02:54:16.798Z,100441.44
2022-11-25T02:59:19.057Z,100474.75
2022-11-25T03:04:21.516Z,100394.94
2022-11-25T03:09:23.910Z,100466.59
2022-11-25T03:14:26.139Z,100404.25
2022-11-25T03:19:28.571Z,100416.59
2022-11-25T03:24:31.504Z,100447.66
2022-11-25T03:29:33.726Z,100486.22
2022-11-25T03:34:36.162Z,100484.69
2022-11-25T03:39:38.685Z,100470.53
2022-11-25T03:44:40.892Z,100473.56
2022-11-25T03:49:43.331Z,100421.56
2022-11-25T03:54:45.775Z,100480.97
2022-11-25T03:59:48.148Z,100474.63
2022-11-25T04:04:50.493Z,100504.69
2022-11-25T04:09:52.861Z,100504.03
2022-11-25T04:14:55.046Z,100450.66
2022-11-25T04:19:57.523Z,100461.50
2022-11-25T04:24:59.842Z,100511.38
2022-11-25T04:30:02.133Z,100495.19
2022-11-25T04:35:04.825Z,100490.03
2022-11-25T04:40:08.014Z,100499.88
2022-11-25T04:45:22.920Z,100545.47
2022-11-25T04:50:25.971Z,100514.53
2022-11-25T04:55:28.448Z,100559.06
2022-11-25T05:00:30.985Z,100573.31
2022-11-25T05:05:33.354Z,100560.13
2022-11-25T05:10:35.616Z,100561.09
2022-11-25T05:15:37.961Z,100542.88
2022-11-25T05:20:40.224Z,100592.16
2022-11-25T05:25:42.636Z,100574.44
2022-11-25T05:30:45.798Z,100572.91
2022-11-25T05:36:14.272Z,100592.97
2022-11-25T05:41:16.699Z,100577.59
2022-11-25T05:46:20.008Z,100622.72
2022-11-25T05:51:23.187Z,100610.53
2022-11-25T05:56:25.405Z,100588.66
2022-11-25T06:01:27.912Z,100636.13
2022-11-25T06:06:30.673Z,100624.78
2022-11-25T06:11:33.011Z,100587.84
2022-11-25T06:16:35.205Z,100623.59
2022-11-25T06:21:37.701Z,100641.63
2022-11-25T06:26:40.027Z,100645.31
2022-11-25T06:31:42.599Z,100600.72
2022-11-25T06:36:45.066Z,100693.44
2022-11-25T06:41:48.703Z,100701.78
2022-11-25T06:46:50.979Z,100650.34
2022-11-25T06:51:53.172Z,100652.97
2022-11-25T06:56:55.355Z,100711.81
2022-11-25T07:01:57.591Z,100713.63
2022-11-25T07:07:00.001Z,100733.50
2022-11-25T07:12:02.402Z,100649.94
2022-11-25T07:17:10.345Z,100730.84
2022-11-25T07:22:14.269Z,100736.31
2022-11-25T07:27:16.469Z,100723.00
2022-11-25T07:32:18.763Z,100731.44
2022-11-25T07:37:21.040Z,100730.50
2022-11-25T07:42:23.352Z,100698.66
2022-11-25T07:47:25.971Z,100717.44
2022-11-25T07:52:28.292Z,100720.19
2022-11-25T07:57:30.545Z,100749.31
2022-11-25T08:02:32.944Z,100754.19
2022-11-25T08:07:36.869Z,100686.72
2022-11-25T08:12:39.423Z,100717.06
2022-11-25T08:17:41.767Z,100726.94
2022-11-25T08:22:43.961Z,100720.75
2022-11-25T08:27:46.224Z,100743.31
2022-11-25T08:32:48.815Z,100723.22
2022-11-25T08:37:51.511Z,100760.31
2022-11-25T08:42:53.913Z,100750.41
2022-11-25T08:47:56.603Z,100770.47
2022-11-25T08:53:00.309Z,100764.25
2022-11-25T08:58:02.907Z,100744.31
2022-11-25T09:03:05.265Z,100727.16
2022-11-25T09:08:09.158Z,100772.88
2022-11-25T09:13:12.114Z,100728.72
2022-11-25T09:18:15.958Z,100727.72
2022-11-25T09:23:18.439Z,100719.72
2022-11-25T09:28:22.282Z,100748.28
2022-11-25T09:33:24.631Z,100728.53
2022-11-25T09:38:26.930Z,100726.13
2022-11-25T09:44:02.878Z,100752.41
2022-11-25T09:49:23.428Z,100770.06
2022-11-25T09:54:35.223Z,100761.38
2022-11-25T09:59:58.932Z,100726.72
2022-11-25T10:05:29.318Z,100751.47
2022-11-25T10:10:43.287Z,100738.22
2022-11-25T10:15:50.388Z,100716.88
2022-11-25T10:20:53.768Z,100695.28
2022-11-25T10:26:03.459Z,100718.75
2022-11-25T10:31:22.975Z,100732.09
2022-11-25T10:36:29.694Z,100718.56
2022-11-25T10:41:37.596Z,100678.47
2022-11-25T10:47:12.795Z,100649.44
2022-11-25T10:52:14.661Z,100715.28
2022-11-25T10:57:19.869Z,100715.47
2022-11-25T11:02:30.476Z,100714.41
2022-11-25T11:07:35.568Z,100713.59
2022-11-25T11:12:37.875Z,100700.94
2022-11-25T11:17:40.197Z,100675.97
2022-11-25T11:22:58.810Z,100693.00
2022-11-25T11:28:03.124Z,100668.03
2022-11-25T11:33:26.495Z,100700.84
2022-11-25T11:38:54.337Z,100676.75
2022-11-25T11:44:22.520Z,100692.06
2022-11-25T11:49:57.215Z,100719.06
2022-11-25T11:55:44.315Z,100706.00
2022-11-25T12:00:57.199Z,100719.88
2022-11-25T12:06:05.083Z,100701.72
2022-11-25T12:11:15.508Z,100651.25
2022-11-25T12:16:25.775Z,100714.88
2022-11-25T12:21:52.595Z,100708.09
2022-11-25T12:27:06.623Z,100706.09
2022-11-25T12:32:17.629Z,100710.78
2022-11-25T12:37:34.413Z,100714.84
2022-11-25T12:42:40.849Z,100638.66
2022-11-25T12:47:44.653Z,100713.69
2022-11-25T12:52:53.412Z,100710.16
2022-11-25T12:58:09.656Z,100709.16
2022-11-25T13:03:49.614Z,100713.09
2022-11-25T13:09:28.976Z,100713.16
2022-11-25T13:15:16.804Z,100719.84
2022-11-25T13:20:28.295Z,100719.22
2022-11-25T13:25:30.829Z,100722.72
2022-11-25T13:30:33.227Z,100738.69
2022-11-25T13:35:36.810Z,100736.75
2022-11-25T13:40:40.245Z,100744.34
2022-11-25T13:45:45.707Z,100734.34
2022-11-25T13:56:30.423Z,100732.88
2022-11-25T14:01:32.677Z,100762.69
2022-11-25T14:06:51.755Z,100761.81
2022-11-25T14:12:28.192Z,100775.19
2022-11-25T14:18:04.490Z,100757.00
2022-11-25T14:23:37.294Z,100775.66
2022-11-25T14:28:42.481Z,100786.22
2022-11-25T14:34:05.726Z,100783.94
2022-11-25T14:39:23.302Z,100750.88
2022-11-25T14:44:36.228Z,100762.78
2022-11-25T14:49:59.562Z,100784.59
2022-11-25T14:55:10.667Z,100762.91
2022-11-25T15:00:16.358Z,100792.41
2022-11-25T15:05:20.474Z,100799.25
2022-11-25T15:10:34.068Z,100778.59
2022-11-25T15:15:36.555Z,100800.03
2022-11-25T15:20:39.043Z,100815.84
2022-11-25T15:25:50.859Z,100794.84
2022-11-25T15:30:58.673Z,100797.25
2022-11-25T15:36:01.054Z,100800.09
2022-11-25T15:41:04.233Z,100783.44
2022-11-25T15:46:07.308Z,100813.50
2022-11-25T15:51:38.845Z,100827.38
2022-11-25T15:56:47.393Z,100813.13
2022-11-25T16:01:49.804Z,100824.31
2022-11-25T16:06:57.538Z,100842.16
2022-11-25T16:12:07.246Z,100853.03
2022-11-25T16:17:13.701Z,100847.56
2022-11-25T16:22:19.438Z,100842.03
2022-11-25T16:27:25.135Z,100824.06
2022-11-25T16:32:29.952Z,100822.31
2022-11-25T16:37:32.373Z,100864.03
2022-11-25T16:42:34.793Z,100846.84
2022-11-25T16:47:37.148Z,100842.00
2022-11-25T16:52:39.422Z,100860.19
2022-11-25T16:57:43.470Z,100883.84
2022-11-25T17:02:45.993Z,100880.06
2022-11-25T17:07:51.373Z,100876.84
2022-11-25T17:12:53.714Z,100882.09
2022-11-25T17:17:56.561Z,100915.09
2022-11-25T17:22:59.729Z,100910.31
2022-11-25T17:28:02.193Z,100884.50
2022-11-25T17:33:07.599Z,100890.44
2022-11-25T17:38:21.542Z,100938.34
2022-11-25T17:43:23.825Z,100931.91
2022-11-25T17:48:32.048Z,100915.03
2022-11-25T17:53:38.226Z,100920.00
2022-11-25T17:58:40.505Z,100939.38
2022-11-25T18:03:42.763Z,100911.94
2022-11-25T18:08:44.987Z,100898.72
2022-11-25T18:13:48.222Z,100943.78
2022-11-25T18:18:50.832Z,100920.31
2022-11-25T18:23:54.313Z,100916.28
2022-11-25T18:28:56.750Z,100908.97
2022-11-25T18:33:58.937Z,100951.59
2022-11-25T18:39:01.366Z,100966.19
2022-11-25T18:44:06.275Z,100975.09
2022-11-25T18:49:16.167Z,100963.53
2022-11-25T18:54:18.364Z,100921.56
2022-11-25T18:59:29.231Z,100970.09
2022-11-25T19:04:31.543Z,100959.06
2022-11-25T19:09:34.011Z,100975.84
2022-11-25T19:14:40.250Z,100974.16
2022-11-25T19:19:43.284Z,100980.00
2022-11-25T19:24:46.568Z,101000.44
2022-11-25T19:29:50.245Z,100997.59
2022-11-25T19:34:57.468Z,101010.81
2022-11-25T19:39:59.689Z,100976.94
2022-11-25T19:45:03.810Z,100984.13
2022-11-25T19:50:07.006Z,101031.75
2022-11-25T19:55:18.555Z,101008.63
2022-11-25T20:00:22.624Z,101028.25
2022-11-25T20:05:32.342Z,101021.28
2022-11-25T20:10:53.448Z,101037.66
2022-11-25T20:15:56.983Z,101005.09
2022-11-25T20:21:03.762Z,101037.09
2022-11-25T20:26:06.339Z,101026.59
2022-11-25T20:31:12.148Z,101026.84
2022-11-25T20:36:17.640Z,101059.00
2022-11-25T20:41:25.977Z,101059.28
2022-11-25T20:46:30.541Z,101014.75
2022-11-25T20:51:32.930Z,101061.97
2022-11-25T20:56:35.483Z,101058.28
2022-11-25T21:01:37.731Z,101043.34
2022-11-25T21:06:41.252Z,101065.34
2022-11-25T21:11:43.697Z,101020.72
2022-11-25T21:16:47.166Z,101055.41
2022-11-25T21:21:51.332Z,101083.09
2022-11-25T21:26:53.737Z,101072.72
2022-11-25T21:31:56.222Z,101061.66
2022-11-25T21:36:59.314Z,101098.31
2022-11-25T21:42:05.596Z,101086.19
2022-11-25T21:47:19.513Z,101096.00
2022-11-25T21:52:22.359Z,101083.13
2022-11-25T21:57:29.141Z,101090.22
2022-11-25T22:02:31.429Z,101073.72
2022-11-25T22:07:33.937Z,101081.19
2022-11-25T22:12:40.952Z,101082.88
2022-11-25T22:17:43.958Z,101123.25
2022-11-25T22:22:46.225Z,101128.72
2022-11-25T22:27:49.235Z,101107.19
2022-11-25T22:32:59.666Z,101126.72
2022-11-25T22:38:02.739Z,101103.94
2022-11-25T22:43:05.192Z,101110.94
2022-11-25T22:48:08.481Z,101136.44
2022-11-25T22:53:16.814Z,101121.81
2022-11-25T22:58:19.136Z,101133.91
2022-11-25T23:03:29.557Z,101135.06
2022-11-25T23:08:34.682Z,101107.59
2022-11-25T23:13:36.913Z,101127.94
2022-11-25T23:18:46.113Z,101138.19
2022-11-25T23:23:48.657Z,101152.66
2022-11-25T23:28:50.871Z,101130.22
2022-11-25T23:33:53.832Z,101121.69
2022-11-25T23:39:02.268Z,101118.03
2022-11-25T23:44:17.194Z,101134.50
2022-11-25T23:49:27.691Z,101164.63
2022-11-25T23:54:40.880Z,101137.63
2022-11-25T23:59:43.772Z,101165.84
